createdAt,value
2019-01-13T00:01:20.365Z,8.50
2019-01-13T00:03:50.745Z,8.50
2019-01-13T00:06:21.227Z,8.50
2019-01-13T00:08:51.791Z,8.60
2019-01-13T00:11:22.223Z,8.60
2019-01-13T00:13:54.888Z,8.60
2019-01-13T00:16:26.270Z,8.60
2019-01-13T00:18:58.347Z,8.50
2019-01-13T00:21:28.779Z,8.50
2019-01-13T00:23:59.237Z,8.60
2019-01-13T00:26:30.388Z,8.50
2019-01-13T00:29:00.740Z,8.50
2019-01-13T00:31:31.217Z,8.50
2019-01-13T00:34:01.700Z,8.50
2019-01-13T00:36:32.067Z,8.50
2019-01-13T00:39:05.001Z,8.50
2019-01-13T00:41:36.468Z,8.50
2019-01-13T00:44:09.296Z,8.50
2019-01-13T00:46:40.002Z,8.50
2019-01-13T00:49:10.635Z,8.50
2019-01-13T00:51:41.088Z,8.50
2019-01-13T00:54:11.856Z,8.50
2019-01-13T00:56:44.907Z,8.50
2019-01-13T00:59:15.307Z,8.50
2019-01-13T01:01:46.470Z,8.50
2019-01-13T01:04:16.987Z,8.50
2019-01-13T01:06:48.367Z,8.50
2019-01-13T01:09:18.885Z,8.50
2019-01-13T01:11:49.575Z,8.50
2019-01-13T01:14:20.559Z,8.50
2019-01-13T01:16:51.049Z,8.60
2019-01-13T01:19:21.477Z,8.60
2019-01-13T01:21:51.950Z,8.60
2019-01-13T01:24:22.301Z,8.60
2019-01-13T01:26:52.798Z,8.60
2019-01-13T01:29:23.186Z,8.60
2019-01-13T01:31:53.654Z,8.60
2019-01-13T01:34:24.963Z,8.60
2019-01-13T01:36:55.491Z,8.60
2019-01-13T01:39:25.899Z,8.70
2019-01-13T01:41:56.863Z,8.70
2019-01-13T01:44:29.861Z,8.70
2019-01-13T01:47:03.487Z,8.70
2019-01-13T01:49:35.161Z,8.70
2019-01-13T01:52:06.386Z,8.70
2019-01-13T01:54:36.744Z,8.70
2019-01-13T01:57:09.948Z,8.70
2019-01-13T01:59:40.621Z,8.70
2019-01-13T02:02:12.026Z,8.70
2019-01-13T02:04:42.448Z,8.80
2019-01-13T02:07:13.039Z,8.80
2019-01-13T02:09:43.426Z,8.80
2019-01-13T02:12:14.081Z,8.80
2019-01-13T02:14:45.926Z,8.80
2019-01-13T02:17:16.472Z,8.80
2019-01-13T02:19:47.163Z,8.80
2019-01-13T02:22:17.597Z,8.80
2019-01-13T02:24:47.943Z,8.80
2019-01-13T02:27:18.391Z,8.80
2019-01-13T02:29:48.987Z,8.80
2019-01-13T02:32:19.362Z,8.80
2019-01-13T02:34:50.337Z,8.80
2019-01-13T02:37:22.275Z,8.80
2019-01-13T02:39:52.651Z,8.80
2019-01-13T02:42:23.096Z,8.80
2019-01-13T02:44:53.782Z,8.80
2019-01-13T02:47:30.262Z,8.80
2019-01-13T02:50:00.571Z,8.90
2019-01-13T02:52:32.755Z,8.90
2019-01-13T02:55:03.360Z,8.90
2019-01-13T02:57:34.088Z,8.80
2019-01-13T03:00:08.201Z,8.80
2019-01-13T03:02:38.673Z,8.90
2019-01-13T03:05:10.011Z,8.90
2019-01-13T03:07:42.371Z,8.80
2019-01-13T03:10:18.234Z,8.90
2019-01-13T03:12:48.738Z,8.90
2019-01-13T03:15:29.143Z,8.90
2019-01-13T03:17:59.637Z,8.90
2019-01-13T03:20:30.069Z,8.90
2019-01-13T03:23:01.414Z,8.90
2019-01-13T03:25:31.750Z,8.90
2019-01-13T03:28:02.220Z,8.90
2019-01-13T03:30:33.459Z,8.90
2019-01-13T03:33:03.750Z,8.90
2019-01-13T03:35:36.794Z,8.90
2019-01-13T03:38:07.331Z,8.90
2019-01-13T03:40:38.543Z,8.90
2019-01-13T03:43:13.307Z,8.90
2019-01-13T03:45:43.789Z,8.90
2019-01-13T03:48:14.878Z,8.90
2019-01-13T03:50:45.745Z,8.90
2019-01-13T03:53:16.095Z,8.90
2019-01-13T03:55:47.867Z,8.90
2019-01-13T03:58:19.854Z,8.90
2019-01-13T04:00:50.960Z,8.90
2019-01-13T04:03:21.358Z,8.90
2019-01-13T04:05:54.407Z,8.90
2019-01-13T04:08:24.898Z,8.90
2019-01-13T04:10:55.483Z,8.90
2019-01-13T04:13:28.160Z,8.90
2019-01-13T04:16:00.407Z,8.90
2019-01-13T04:18:32.287Z,8.90
2019-01-13T04:21:11.839Z,8.90
2019-01-13T04:23:42.892Z,8.90
2019-01-13T04:26:13.267Z,8.90
2019-01-13T04:28:44.016Z,8.90
2019-01-13T04:31:14.464Z,8.90
2019-01-13T04:33:44.731Z,8.90
2019-01-13T04:36:15.143Z,8.90
2019-01-13T04:38:45.616Z,8.90
2019-01-13T04:41:16.035Z,8.90
2019-01-13T04:44:05.383Z,9.00
2019-01-13T04:46:38.647Z,8.90
2019-01-13T04:49:09.754Z,8.90
2019-01-13T04:51:46.271Z,9.00
2019-01-13T04:54:16.688Z,8.90
2019-01-13T04:56:48.796Z,8.90
2019-01-13T04:59:19.225Z,9.00
2019-01-13T05:01:51.313Z,8.90
2019-01-13T05:04:21.716Z,9.00
2019-01-13T05:06:52.111Z,9.00
2019-01-13T05:09:22.540Z,9.00
2019-01-13T05:11:55.036Z,9.00
2019-01-13T05:14:25.599Z,8.90
2019-01-13T05:16:56.763Z,9.00
2019-01-13T05:19:27.712Z,9.00
2019-01-13T05:21:58.490Z,9.00
2019-01-13T05:24:28.956Z,9.00
2019-01-13T05:26:59.503Z,9.00
2019-01-13T05:29:30.803Z,9.00
2019-01-13T05:32:01.163Z,9.00
2019-01-13T05:34:31.723Z,9.00
2019-01-13T05:37:02.170Z,9.00
2019-01-13T05:39:32.593Z,9.00
2019-01-13T05:42:05.892Z,9.00
2019-01-13T05:44:48.331Z,9.00
2019-01-13T05:47:18.779Z,9.00
2019-01-13T05:49:52.963Z,9.00
2019-01-13T05:52:23.334Z,9.00
2019-01-13T05:54:53.699Z,9.00
2019-01-13T05:57:24.134Z,9.00
2019-01-13T05:59:56.308Z,9.00
2019-01-13T06:02:26.651Z,9.00
2019-01-13T06:04:58.742Z,9.00
2019-01-13T06:07:29.085Z,9.00
2019-01-13T06:09:59.531Z,9.00
2019-01-13T06:12:30.811Z,9.10
2019-01-13T06:15:01.223Z,9.10
2019-01-13T06:17:32.411Z,9.00
2019-01-13T06:20:02.859Z,9.10
2019-01-13T06:22:34.216Z,9.10
2019-01-13T06:25:05.911Z,9.10
2019-01-13T06:27:38.844Z,9.10
2019-01-13T06:30:13.651Z,9.10
2019-01-13T06:32:45.698Z,9.10
2019-01-13T06:35:16.247Z,9.10
2019-01-13T06:37:46.667Z,9.10
2019-01-13T06:40:19.060Z,9.10
2019-01-13T06:42:49.507Z,9.10
2019-01-13T06:45:29.000Z,9.10
2019-01-13T06:48:00.140Z,9.10
2019-01-13T06:50:32.224Z,9.10
2019-01-13T06:53:04.359Z,9.10
2019-01-13T06:55:34.780Z,9.10
2019-01-13T06:58:05.484Z,9.10
2019-01-13T07:00:35.936Z,9.10
2019-01-13T07:03:06.375Z,9.10
2019-01-13T07:05:42.896Z,9.10
2019-01-13T07:08:13.580Z,9.10
2019-01-13T07:10:44.039Z,9.10
2019-01-13T07:13:14.495Z,9.10
2019-01-13T07:15:44.883Z,9.10
2019-01-13T07:18:27.212Z,9.10
2019-01-13T07:20:59.399Z,9.10
2019-01-13T07:23:36.167Z,9.10
2019-01-13T07:26:06.678Z,9.10
2019-01-13T07:28:44.222Z,9.10
2019-01-13T07:31:14.752Z,9.10
2019-01-13T07:33:45.739Z,9.10
2019-01-13T07:36:17.299Z,9.10
2019-01-13T07:38:47.707Z,9.20
2019-01-13T07:41:18.655Z,9.10
2019-01-13T07:43:49.716Z,9.10
2019-01-13T07:46:20.185Z,9.10
2019-01-13T07:48:51.138Z,9.10
2019-01-13T07:51:21.483Z,9.20
2019-01-13T07:53:51.847Z,9.20
2019-01-13T07:56:22.251Z,9.20
2019-01-13T07:58:52.706Z,9.20
2019-01-13T08:01:23.099Z,9.20
2019-01-13T08:03:54.352Z,9.20
2019-01-13T08:06:24.932Z,9.20
2019-01-13T08:08:55.292Z,9.20
2019-01-13T08:11:25.778Z,9.20
2019-01-13T08:13:56.356Z,9.20
2019-01-13T08:16:26.756Z,9.20
2019-01-13T08:18:57.131Z,9.20
2019-01-13T08:21:27.809Z,9.20
2019-01-13T08:23:58.835Z,9.20
2019-01-13T08:26:29.253Z,9.20
2019-01-13T08:28:59.597Z,9.20
2019-01-13T08:31:29.946Z,9.20
2019-01-13T08:34:00.511Z,9.20
2019-01-13T08:36:31.042Z,9.30
2019-01-13T08:39:01.459Z,9.30
2019-01-13T08:41:31.931Z,9.30
2019-01-13T08:44:02.243Z,9.30
2019-01-13T08:46:33.420Z,9.30
2019-01-13T08:49:03.850Z,9.30
2019-01-13T08:51:34.323Z,9.30
2019-01-13T08:54:05.061Z,9.30
2019-01-13T08:56:35.483Z,9.40
2019-01-13T08:59:07.677Z,9.30
2019-01-13T09:01:38.054Z,9.40
2019-01-13T09:04:08.471Z,9.40
2019-01-13T09:06:39.651Z,9.40
2019-01-13T09:09:10.130Z,9.40
2019-01-13T09:11:40.498Z,9.40
2019-01-13T09:14:10.872Z,9.40
2019-01-13T09:16:41.295Z,9.40
2019-01-13T09:19:11.675Z,9.40
2019-01-13T09:21:42.373Z,9.40
2019-01-13T09:24:12.770Z,9.40
2019-01-13T09:26:43.123Z,9.40
2019-01-13T09:29:13.471Z,9.40
2019-01-13T09:31:43.883Z,9.40
2019-01-13T09:34:14.363Z,9.50
2019-01-13T09:36:45.731Z,9.50
2019-01-13T09:39:20.322Z,9.50
2019-01-13T09:41:52.756Z,9.50
2019-01-13T09:44:26.539Z,9.50
2019-01-13T09:46:57.376Z,9.50
2019-01-13T09:49:30.870Z,9.50
2019-01-13T09:52:04.189Z,9.60
2019-01-13T09:54:34.575Z,9.60
2019-01-13T09:57:06.991Z,9.60
2019-01-13T09:59:37.975Z,9.50
2019-01-13T10:02:11.986Z,9.60
2019-01-13T10:04:42.472Z,9.60
2019-01-13T10:07:15.039Z,9.60
2019-01-13T10:09:59.007Z,9.60
2019-01-13T10:12:32.651Z,9.70
2019-01-13T10:15:08.990Z,9.70
2019-01-13T10:17:51.383Z,9.70
2019-01-13T10:20:22.443Z,9.70
2019-01-13T10:22:54.002Z,9.70
2019-01-13T10:25:32.635Z,9.70
2019-01-13T10:28:05.337Z,9.70
2019-01-13T10:30:38.979Z,9.80
2019-01-13T10:33:11.796Z,9.80
2019-01-13T10:35:44.117Z,9.80
2019-01-13T10:38:16.510Z,9.80
2019-01-13T10:40:49.831Z,9.80
2019-01-13T10:43:28.483Z,9.80
2019-01-13T10:46:04.129Z,9.80
2019-01-13T10:48:36.799Z,9.80
2019-01-13T10:51:08.266Z,9.90
2019-01-13T10:53:39.478Z,9.90
2019-01-13T10:56:11.614Z,9.90
2019-01-13T10:58:45.811Z,9.90
2019-01-13T11:01:16.823Z,9.90
2019-01-13T11:03:58.103Z,10.00
2019-01-13T11:06:29.735Z,9.90
2019-01-13T11:09:07.366Z,10.00
2019-01-13T11:11:45.402Z,9.90
2019-01-13T11:14:18.204Z,10.00
2019-01-13T11:16:51.611Z,10.00
2019-01-13T11:19:23.853Z,10.10
2019-01-13T11:21:54.704Z,10.00
2019-01-13T11:24:27.972Z,10.10
2019-01-13T11:27:07.456Z,10.10
2019-01-13T11:29:42.108Z,10.00
2019-01-13T11:32:20.695Z,10.00
2019-01-13T11:34:58.735Z,10.00
2019-01-13T11:37:31.245Z,9.90
2019-01-13T11:40:02.555Z,10.00
2019-01-13T11:42:32.996Z,10.00
2019-01-13T11:45:03.855Z,10.00
2019-01-13T11:47:35.623Z,10.00
2019-01-13T11:50:10.083Z,10.00
2019-01-13T11:52:43.471Z,10.00
2019-01-13T11:55:15.524Z,10.00
2019-01-13T11:57:48.924Z,10.00
2019-01-13T12:00:35.399Z,10.00
2019-01-13T12:03:07.843Z,10.00
2019-01-13T12:05:41.947Z,9.90
2019-01-13T12:08:14.075Z,10.00
2019-01-13T12:10:46.535Z,10.00
2019-01-13T12:13:21.723Z,10.00
2019-01-13T12:15:54.478Z,10.00
2019-01-13T12:18:26.299Z,9.90
2019-01-13T12:20:59.690Z,10.00
2019-01-13T12:23:30.150Z,10.00
2019-01-13T12:26:04.865Z,10.00
2019-01-13T12:28:37.741Z,10.00
2019-01-13T12:31:11.102Z,10.00
2019-01-13T12:33:41.814Z,10.00
2019-01-13T12:36:13.370Z,10.00
2019-01-13T12:38:44.518Z,10.00
2019-01-13T12:41:18.451Z,10.00
2019-01-13T12:43:51.558Z,10.00
2019-01-13T12:46:24.644Z,10.00
2019-01-13T12:48:57.152Z,10.00
2019-01-13T12:51:29.314Z,10.00
2019-01-13T12:54:02.975Z,10.00
2019-01-13T12:56:35.545Z,10.00
2019-01-13T12:59:10.323Z,10.00
2019-01-13T13:01:42.394Z,10.00
2019-01-13T13:04:16.748Z,10.00
2019-01-13T13:06:50.564Z,10.00
2019-01-13T13:09:21.551Z,10.10
2019-01-13T13:11:52.499Z,10.00
2019-01-13T13:14:24.079Z,10.10
2019-01-13T13:16:56.929Z,10.10
2019-01-13T13:19:28.590Z,10.10
2019-01-13T13:22:03.156Z,10.10
2019-01-13T13:24:38.455Z,10.10
2019-01-13T13:27:11.895Z,10.10
2019-01-13T13:29:44.859Z,10.10
2019-01-13T13:32:20.387Z,10.10
2019-01-13T13:34:51.631Z,10.10
2019-01-13T13:37:38.781Z,10.20
2019-01-13T13:40:13.672Z,10.20
2019-01-13T13:42:45.514Z,10.20
2019-01-13T13:45:16.067Z,10.20
2019-01-13T13:47:46.580Z,10.30
2019-01-13T13:50:19.495Z,10.30
2019-01-13T13:52:50.063Z,10.30
2019-01-13T13:55:20.713Z,10.30
2019-01-13T13:57:51.436Z,10.30
2019-01-13T14:00:29.964Z,10.30
2019-01-13T14:03:01.164Z,10.30
2019-01-13T14:05:31.740Z,10.20
2019-01-13T14:08:02.348Z,10.20
2019-01-13T14:10:38.211Z,10.20
2019-01-13T14:13:08.615Z,10.20
2019-01-13T14:15:39.223Z,10.10
2019-01-13T14:18:09.659Z,10.10
2019-01-13T14:20:40.124Z,10.10
2019-01-13T14:23:10.697Z,10.10
2019-01-13T14:25:41.355Z,10.10
2019-01-13T14:28:13.264Z,10.10
2019-01-13T14:30:43.705Z,10.10
2019-01-13T14:33:14.204Z,10.10
2019-01-13T14:35:45.610Z,10.00
2019-01-13T14:38:16.243Z,10.00
2019-01-13T14:40:47.730Z,10.00
2019-01-13T14:43:18.287Z,10.00
2019-01-13T14:45:48.732Z,9.90
2019-01-13T14:48:19.172Z,10.00
2019-01-13T14:50:49.516Z,9.90
2019-01-13T14:53:19.939Z,9.90
2019-01-13T14:55:50.300Z,9.90
2019-01-13T14:58:20.753Z,9.90
2019-01-13T15:00:51.183Z,9.90
2019-01-13T15:03:21.754Z,9.90
2019-01-13T15:05:53.096Z,9.90
2019-01-13T15:08:23.430Z,9.80
2019-01-13T15:10:53.854Z,9.90
2019-01-13T15:13:24.316Z,9.90
2019-01-13T15:15:54.781Z,9.90
2019-01-13T15:18:25.126Z,9.90
2019-01-13T15:20:55.595Z,9.90
2019-01-13T15:23:26.332Z,9.90
2019-01-13T15:25:56.760Z,9.90
2019-01-13T15:28:28.096Z,9.80
2019-01-13T15:31:00.082Z,9.90
2019-01-13T15:33:30.451Z,9.80
2019-01-13T15:36:00.902Z,9.80
2019-01-13T15:38:31.340Z,9.80
2019-01-13T15:41:01.758Z,9.80
2019-01-13T15:43:32.256Z,9.80
2019-01-13T15:46:02.690Z,9.80
2019-01-13T15:48:33.115Z,9.70
2019-01-13T15:51:04.555Z,9.70
2019-01-13T15:53:34.917Z,9.60
2019-01-13T15:56:05.502Z,9.60
2019-01-13T15:58:35.863Z,9.60
2019-01-13T16:01:06.490Z,9.60
2019-01-13T16:03:36.919Z,9.60
2019-01-13T16:06:07.441Z,9.60
2019-01-13T16:08:38.029Z,9.60
2019-01-13T16:11:08.459Z,9.60
2019-01-13T16:13:38.852Z,9.60
2019-01-13T16:16:09.395Z,9.50
2019-01-13T16:18:39.767Z,9.50
2019-01-13T16:21:10.191Z,9.40
2019-01-13T16:23:40.688Z,9.40
2019-01-13T16:26:11.351Z,9.40
2019-01-13T16:28:43.541Z,9.40
2019-01-13T16:31:14.834Z,9.40
2019-01-13T16:33:45.276Z,9.30
2019-01-13T16:36:16.523Z,9.30
2019-01-13T16:38:46.937Z,9.20
2019-01-13T16:41:17.303Z,9.20
2019-01-13T16:43:47.777Z,9.20
2019-01-13T17:12:24.926Z,8.70
2019-01-13T17:14:56.121Z,8.70
2019-01-13T17:17:27.477Z,8.60
2019-01-13T17:19:58.043Z,8.70
2019-01-13T17:22:28.450Z,8.70
2019-01-13T17:24:58.863Z,8.70
2019-01-13T17:27:29.329Z,8.70
2019-01-13T17:29:59.756Z,8.70
2019-01-13T17:32:31.856Z,8.70
2019-01-13T17:35:02.188Z,8.70
2019-01-13T17:37:32.541Z,8.70
2019-01-13T17:40:05.842Z,8.70
2019-01-13T17:42:36.299Z,8.70
2019-01-13T17:45:09.633Z,8.70
2019-01-13T17:47:40.248Z,8.70
2019-01-13T17:50:13.479Z,8.70
2019-01-13T17:52:44.156Z,8.70
2019-01-13T17:55:16.827Z,8.70
2019-01-13T17:57:49.173Z,8.60
2019-01-13T18:00:46.361Z,8.70
2019-01-13T18:05:40.765Z,8.60
2019-01-13T18:08:11.115Z,8.60
2019-01-13T18:10:42.403Z,8.60
2019-01-13T18:13:14.551Z,8.60
2019-01-13T18:15:45.035Z,8.60
2019-01-13T18:18:15.595Z,8.60
2019-01-13T18:20:45.990Z,8.50
2019-01-13T18:23:16.359Z,8.50
2019-01-13T18:25:46.869Z,8.50
2019-01-13T18:28:19.251Z,8.50
2019-01-13T18:30:49.651Z,8.50
2019-01-13T18:33:20.066Z,8.50
2019-01-13T18:35:51.807Z,8.50
2019-01-13T18:38:22.267Z,8.50
2019-01-13T18:40:52.722Z,8.50
2019-01-13T18:43:23.205Z,8.60
2019-01-13T18:45:55.292Z,8.60
2019-01-13T18:48:25.610Z,8.70
2019-01-13T18:50:56.043Z,8.70
2019-01-13T18:53:44.547Z,8.70
2019-01-13T18:56:15.256Z,8.70
2019-01-13T18:58:45.703Z,8.70
2019-01-13T19:01:16.175Z,8.70
2019-01-13T19:03:47.327Z,8.70
2019-01-13T19:06:18.403Z,8.70
2019-01-13T19:08:48.853Z,8.60
2019-01-13T19:11:47.780Z,8.60
2019-01-13T19:14:32.231Z,8.60
2019-01-13T19:17:07.685Z,8.50
2019-01-13T19:19:55.835Z,8.50
2019-01-13T19:22:28.180Z,8.40
2019-01-13T19:25:02.020Z,8.40
2019-01-13T19:27:32.439Z,8.40
2019-01-13T19:30:02.823Z,8.30
2019-01-13T19:32:34.807Z,8.30
2019-01-13T19:35:06.141Z,8.30
2019-01-13T19:37:36.559Z,8.30
2019-01-13T19:40:08.251Z,8.40
2019-01-13T19:42:38.625Z,8.40
2019-01-13T19:45:10.247Z,8.40
2019-01-13T19:47:41.531Z,8.40
2019-01-13T19:50:14.346Z,8.40
2019-01-13T19:52:44.839Z,8.40
2019-01-13T19:55:16.451Z,8.50
2019-01-13T19:57:47.851Z,8.50
2019-01-13T20:00:24.378Z,8.50
2019-01-13T20:02:57.515Z,8.60
2019-01-13T20:05:27.915Z,8.60
2019-01-13T20:07:58.440Z,8.60
2019-01-13T20:10:28.904Z,8.60
2019-01-13T20:12:59.323Z,8.60
2019-01-13T20:15:30.441Z,8.70
2019-01-13T20:18:00.842Z,8.60
2019-01-13T20:20:31.260Z,8.70
2019-01-13T20:23:03.475Z,8.70
2019-01-13T20:25:34.000Z,8.70
2019-01-13T20:28:04.542Z,8.70
2019-01-13T20:30:35.786Z,8.70
2019-01-13T20:33:06.719Z,8.70
2019-01-13T20:35:37.140Z,8.70
2019-01-13T20:38:07.659Z,8.70
2019-01-13T20:40:39.801Z,8.70
2019-01-13T20:43:10.179Z,8.70
2019-01-13T20:45:42.001Z,8.70
2019-01-13T20:48:12.512Z,8.80
2019-01-13T20:50:42.909Z,8.80
2019-01-13T20:53:14.214Z,8.70
2019-01-13T20:55:44.720Z,8.70
2019-01-13T20:58:15.080Z,8.70
2019-01-13T21:00:45.486Z,8.70
2019-01-13T21:03:16.022Z,8.70
2019-01-13T21:05:46.431Z,8.20
2019-01-13T21:08:19.340Z,7.90
2019-01-13T21:10:51.491Z,7.60
2019-01-13T21:13:21.936Z,7.60
2019-01-13T21:16:02.347Z,7.60
2019-01-13T21:18:34.343Z,7.60
2019-01-13T21:21:04.947Z,7.60
2019-01-13T21:23:44.426Z,7.60
2019-01-13T21:26:14.819Z,7.70
2019-01-13T21:28:45.755Z,7.80
2019-01-13T21:31:16.840Z,7.90
2019-01-13T21:33:48.342Z,7.90
2019-01-13T21:36:18.786Z,7.90
2019-01-13T21:38:49.089Z,8.00
2019-01-13T21:41:22.292Z,8.00
2019-01-13T21:43:52.620Z,8.10
2019-01-13T21:46:23.054Z,8.10
2019-01-13T21:48:53.519Z,8.10
2019-01-13T21:51:23.980Z,8.10
2019-01-13T21:53:56.338Z,8.10
2019-01-13T21:56:28.395Z,8.10
2019-01-13T21:58:58.767Z,8.10
2019-01-13T22:01:35.387Z,8.10
2019-01-13T22:04:01.720Z,8.00
2019-01-13T22:06:32.387Z,8.00
2019-01-13T22:09:06.583Z,8.10
2019-01-13T22:11:38.043Z,8.10
2019-01-13T22:14:08.639Z,8.10
2019-01-13T22:16:40.931Z,8.00
2019-01-13T22:19:11.342Z,8.00
2019-01-13T22:21:44.254Z,8.10
2019-01-13T22:24:15.651Z,8.10
2019-01-13T22:26:47.934Z,8.10
2019-01-13T22:29:18.332Z,8.00
2019-01-13T22:31:49.122Z,7.90
2019-01-13T22:34:32.372Z,7.80
2019-01-13T22:37:04.331Z,7.70
2019-01-13T22:39:36.165Z,7.80
2019-01-13T22:42:06.526Z,7.70
2019-01-13T22:44:39.233Z,7.70
2019-01-13T22:47:10.024Z,7.70
2019-01-13T22:49:40.410Z,7.80
2019-01-13T22:52:11.686Z,7.70
2019-01-13T22:54:42.082Z,7.70
2019-01-13T22:57:12.468Z,7.70
2019-01-13T22:59:42.878Z,7.70
2019-01-13T23:02:13.540Z,7.60
2019-01-13T23:04:44.067Z,7.60
2019-01-13T23:07:14.522Z,7.60
2019-01-13T23:09:45.209Z,7.70
2019-01-13T23:12:15.626Z,7.70
2019-01-13T23:14:45.975Z,7.70
2019-01-13T23:17:17.099Z,7.80
2019-01-13T23:19:47.391Z,7.90
2019-01-13T23:22:17.735Z,7.90
2019-01-13T23:24:48.068Z,7.90
2019-01-13T23:27:18.602Z,7.80
2019-01-13T23:29:49.856Z,7.80
2019-01-13T23:32:20.141Z,7.80
2019-01-13T23:34:50.476Z,7.80
2019-01-13T23:37:20.847Z,7.70
2019-01-13T23:39:51.382Z,7.60
2019-01-13T23:42:21.832Z,7.60
2019-01-13T23:44:52.344Z,7.50
2019-01-13T23:47:23.295Z,7.50
2019-01-13T23:49:53.672Z,7.50
2019-01-13T23:52:24.014Z,7.50
2019-01-13T23:54:54.459Z,7.50
2019-01-13T23:57:26.895Z,7.50
2019-01-13T23:59:57.339Z,7.40
